Time;durP1;ratioP1;P1;durP2;ratioP2;P2;SDS_P1;SDS_P2;PMS_P1;PMS_P2;Temp;Humidity;BMP_temperature;BMP_pressure;BME280_temperature;BME280_humidity;BME280_pressure;Samples;Min_cycle;Max_cycle;Signal;HPM_P1;HPM_P2
2021/12/08 00:02:16;;;;;;;38.78;30.20;;;;;;;;;;1886497;74;21144;-87
2021/12/08 00:04:46;;;;;;;44.60;31.00;;;;;;;;;;1875884;75;21131;-86
2021/12/08 00:07:19;;;;;;;52.17;33.65;;;;;;;;;;1864621;75;21081;-87
2021/12/08 00:10:15;;;;;;;43.33;31.12;;;;;;;;;;1870586;75;21630;-87
2021/12/08 00:14:55;;;;;;;45.43;32.30;;;;;;;;;;1868434;76;21128;-86
2021/12/08 00:17:25;;;;;;;47.30;32.80;;;;;;;;;;1864443;75;21132;-86
2021/12/08 00:20:00;;;;;;;44.73;32.35;;;;;;;;;;1845919;76;21134;-87
2021/12/08 00:22:27;;;;;;;48.70;30.48;;;;;;;;;;1815639;77;21222;-86
2021/12/08 00:24:57;;;;;;;44.65;30.23;;;;;;;;;;1814980;78;21182;-87
2021/12/08 00:27:27;;;;;;;47.15;30.77;;;;;;;;;;1817397;77;21404;-73
2021/12/08 00:29:57;;;;;;;46.08;29.42;;;;;;;;;;1878735;74;21187;-73
2021/12/08 00:32:30;;;;;;;38.80;29.95;;;;;;;;;;1891132;74;21147;-73
2021/12/08 00:35:02;;;;;;;54.60;30.30;;;;;;;;;;1889888;74;21259;-71
2021/12/08 00:37:32;;;;;;;67.58;31.27;;;;;;;;;;1878153;75;21753;-73
2021/12/08 00:40:05;;;;;;;39.95;28.98;;;;;;;;;;1892194;74;21151;-73
2021/12/08 00:42:36;;;;;;;40.67;27.80;;;;;;;;;;1878520;75;21795;-73
2021/12/08 00:45:08;;;;;;;39.18;27.75;;;;;;;;;;1879296;74;21678;-75
2021/12/08 00:47:38;;;;;;;41.10;27.70;;;;;;;;;;1814894;77;21096;-75
2021/12/08 00:50:09;;;;;;;38.23;27.17;;;;;;;;;;1814137;78;21198;-74
2021/12/08 00:52:40;;;;;;;42.27;27.48;;;;;;;;;;1877014;75;21116;-74
2021/12/08 00:55:12;;;;;;;37.88;26.02;;;;;;;;;;1877594;75;21233;-72
2021/12/08 00:57:44;;;;;;;36.10;25.92;;;;;;;;;;1889672;74;21114;-73
2021/12/08 01:00:18;;;;;;;38.53;26.33;;;;;;;;;;1878145;75;21138;-72
2021/12/08 01:02:49;;;;;;;42.88;26.95;;;;;;;;;;1877375;74;21172;-73
2021/12/08 01:05:27;;;;;;;39.13;25.92;;;;;;;;;;1851617;76;21163;-73
2021/12/08 01:07:58;;;;;;;33.00;24.72;;;;;;;;;;1841996;76;21097;-72
2021/12/08 01:10:30;;;;;;;35.30;26.27;;;;;;;;;;1811735;78;21128;-74
2021/12/08 01:13:05;;;;;;;38.17;27.07;;;;;;;;;;1813311;77;21170;-73
2021/12/08 01:15:36;;;;;;;37.63;26.62;;;;;;;;;;1815014;77;21207;-73
2021/12/08 01:18:06;;;;;;;30.65;24.20;;;;;;;;;;1878700;75;21143;-72
2021/12/08 01:20:37;;;;;;;34.67;24.92;;;;;;;;;;1887168;74;21167;-72
2021/12/08 01:23:08;;;;;;;33.20;25.68;;;;;;;;;;1857133;76;21100;-74
2021/12/08 01:25:38;;;;;;;33.63;25.40;;;;;;;;;;1873321;75;21144;-75
2021/12/08 01:28:08;;;;;;;42.60;26.02;;;;;;;;;;1865825;75;21621;-74
2021/12/08 01:30:40;;;;;;;34.75;24.65;;;;;;;;;;1857053;76;21144;-73
2021/12/08 01:33:09;;;;;;;32.30;24.02;;;;;;;;;;1814080;77;21160;-72
2021/12/08 01:35:40;;;;;;;35.13;24.52;;;;;;;;;;1818790;77;21643;-72
2021/12/08 01:38:32;;;;;;;31.50;23.62;;;;;;;;;;1834581;76;21178;-72
2021/12/08 01:41:04;;;;;;;33.28;25.20;;;;;;;;;;1799805;78;21294;-72
2021/12/08 01:45:56;;;;;;;34.23;25.40;;;;;;;;;;1840902;76;21111;-75
2021/12/08 01:46:07;;;;;;;38.48;25.97;;;;;;;;;;1830707;76;21607;-72
2021/12/08 01:48:39;;;;;;;29.80;23.62;;;;;;;;;;1793765;78;21803;-73
2021/12/08 01:51:10;;;;;;;31.02;23.90;;;;;;;;;;1794192;78;21155;-71
2021/12/08 01:53:42;;;;;;;32.42;23.27;;;;;;;;;;1803847;78;21565;-73
2021/12/08 01:56:16;;;;;;;33.15;23.25;;;;;;;;;;1776831;79;21187;-72
2021/12/08 01:58:47;;;;;;;27.50;22.15;;;;;;;;;;1758194;79;21160;-74
2021/12/08 02:01:18;;;;;;;31.17;22.15;;;;;;;;;;1770784;79;21625;-71
2021/12/08 02:03:48;;;;;;;33.53;23.12;;;;;;;;;;1758252;80;21106;-72
2021/12/08 02:06:19;;;;;;;33.23;22.90;;;;;;;;;;1839282;76;21127;-71
2021/12/08 02:08:51;;;;;;;28.67;21.75;;;;;;;;;;1851722;76;22039;-71
2021/12/08 02:11:33;;;;;;;35.23;21.70;;;;;;;;;;1834745;76;21155;-71
2021/12/08 02:14:06;;;;;;;31.68;23.07;;;;;;;;;;1848922;76;21621;-71
2021/12/08 02:16:36;;;;;;;29.95;22.67;;;;;;;;;;1831809;76;21894;-72
2021/12/08 02:19:06;;;;;;;31.93;22.90;;;;;;;;;;1834234;76;21149;-71
2021/12/08 02:21:38;;;;;;;34.27;22.85;;;;;;;;;;1836380;76;21153;-73
2021/12/08 02:24:09;;;;;;;34.50;22.37;;;;;;;;;;1832658;77;21232;-72
2021/12/08 02:26:41;;;;;;;33.92;22.15;;;;;;;;;;1835782;76;21217;-72
2021/12/08 02:29:14;;;;;;;33.20;22.13;;;;;;;;;;1834296;76;21185;-73
2021/12/08 02:49:34;;;;;;;28.47;21.50;;;;;;;;;;1845503;76;21144;-72
2021/12/08 02:52:06;;;;;;;28.02;20.00;;;;;;;;;;1848680;76;21238;-73
2021/12/08 02:54:37;;;;;;;28.75;20.20;;;;;;;;;;1846346;77;21169;-72
2021/12/08 02:57:08;;;;;;;31.07;20.00;;;;;;;;;;1828395;77;21235;-72
2021/12/08 02:59:38;;;;;;;28.40;20.27;;;;;;;;;;1860618;75;21188;-71
2021/12/08 03:02:09;;;;;;;27.67;19.87;;;;;;;;;;1861527;75;21129;-70
2021/12/08 03:04:43;;;;;;;27.62;20.55;;;;;;;;;;1832603;77;21230;-71
2021/12/08 03:07:14;;;;;;;27.25;19.65;;;;;;;;;;1860040;75;21107;-73
2021/12/08 03:09:45;;;;;;;25.43;19.35;;;;;;;;;;1856972;75;21160;-69
2021/12/08 03:12:15;;;;;;;26.10;19.92;;;;;;;;;;1858907;75;21767;-70
2021/12/08 03:14:45;;;;;;;26.30;18.95;;;;;;;;;;1857129;76;21651;-71
2021/12/08 03:17:15;;;;;;;23.92;18.62;;;;;;;;;;1862794;75;21114;-72
2021/12/08 03:19:46;;;;;;;25.23;19.82;;;;;;;;;;1845635;76;21163;-72
2021/12/08 03:22:16;;;;;;;23.73;19.25;;;;;;;;;;1846522;76;21185;-68
2021/12/08 03:24:48;;;;;;;25.68;19.30;;;;;;;;;;1847809;76;21755;-69
2021/12/08 03:27:25;;;;;;;25.75;19.52;;;;;;;;;;1852850;76;21154;-69
2021/12/08 03:30:00;;;;;;;24.27;17.73;;;;;;;;;;1853325;76;21169;-70
2021/12/08 03:32:35;;;;;;;29.05;19.25;;;;;;;;;;1853156;76;21134;-70
2021/12/08 03:34:54;;;;;;;22.80;17.70;;;;;;;;;;1862280;76;21126;-69
2021/12/08 03:37:25;;;;;;;27.30;17.62;;;;;;;;;;1863732;76;21114;-71
2021/12/08 03:39:56;;;;;;;22.95;17.60;;;;;;;;;;1859642;76;21669;-72
2021/12/08 03:42:28;;;;;;;24.82;17.02;;;;;;;;;;1859471;75;21193;-73
2021/12/08 03:45:01;;;;;;;23.35;17.27;;;;;;;;;;1860995;75;21164;-71
2021/12/08 03:47:33;;;;;;;24.52;16.95;;;;;;;;;;1834402;77;22342;-71
2021/12/08 03:50:04;;;;;;;26.15;16.67;;;;;;;;;;1828111;78;21157;-72
2021/12/08 03:52:37;;;;;;;24.70;19.40;;;;;;;;;;1857145;75;21228;-73
2021/12/08 03:55:07;;;;;;;24.02;16.32;;;;;;;;;;1857520;76;21160;-72
2021/12/08 03:57:37;;;;;;;19.60;15.38;;;;;;;;;;1797020;79;21166;-72
2021/12/08 04:00:11;;;;;;;19.45;13.88;;;;;;;;;;1862416;76;21110;-71
2021/12/08 04:02:43;;;;;;;19.50;12.98;;;;;;;;;;1853797;77;21109;-72
2021/12/08 04:05:19;;;;;;;19.35;14.28;;;;;;;;;;1855679;75;21578;-71
2021/12/08 04:07:51;;;;;;;20.20;14.73;;;;;;;;;;1864876;76;21188;-74
2021/12/08 04:10:28;;;;;;;21.48;15.45;;;;;;;;;;1865741;76;21813;-73
2021/12/08 04:12:55;;;;;;;23.27;15.55;;;;;;;;;;1864143;76;22133;-72
2021/12/08 04:15:26;;;;;;;19.57;13.32;;;;;;;;;;1858324;76;21204;-73
2021/12/08 04:17:58;;;;;;;22.35;14.93;;;;;;;;;;1866698;76;21090;-74
2021/12/08 04:20:30;;;;;;;18.00;13.62;;;;;;;;;;1853655;76;21638;-73
2021/12/08 04:23:01;;;;;;;24.63;13.58;;;;;;;;;;1852636;77;21146;-73
2021/12/08 04:25:32;;;;;;;17.62;12.37;;;;;;;;;;1864683;76;21182;-72
2021/12/08 04:28:04;;;;;;;21.33;13.90;;;;;;;;;;1827602;78;21066;-71
2021/12/08 04:30:35;;;;;;;18.82;13.15;;;;;;;;;;1828388;77;21150;-72
2021/12/08 04:33:07;;;;;;;15.83;12.82;;;;;;;;;;1862174;76;21138;-70
2021/12/08 04:35:39;;;;;;;18.15;13.85;;;;;;;;;;1853914;76;21138;-70
2021/12/08 04:38:11;;;;;;;16.70;13.35;;;;;;;;;;1814453;79;21084;-71
2021/12/08 04:43:22;;;;;;;18.80;13.20;;;;;;;;;;1822699;77;21156;-69
2021/12/08 04:45:58;;;;;;;17.87;12.15;;;;;;;;;;1817006;77;21159;-69
2021/12/08 05:08:43;;;;;;;17.67;12.60;;;;;;;;;;1808276;79;21111;-71
2021/12/08 05:11:09;;;;;;;17.60;12.93;;;;;;;;;;1794340;78;21182;-72
2021/12/08 05:13:42;;;;;;;18.40;11.95;;;;;;;;;;1792642;78;21097;-78
2021/12/08 05:16:15;;;;;;;21.23;11.73;;;;;;;;;;1788649;80;21582;-78
2021/12/08 05:18:48;;;;;;;12.70;9.45;;;;;;;;;;1788928;80;21252;-76
2021/12/08 05:21:19;;;;;;;15.93;10.68;;;;;;;;;;1788568;80;21193;-77
2021/12/08 05:23:51;;;;;;;13.83;10.58;;;;;;;;;;1786260;79;21147;-77
2021/12/08 05:26:24;;;;;;;17.35;10.40;;;;;;;;;;1805002;79;21748;-76
2021/12/08 05:28:56;;;;;;;15.85;10.45;;;;;;;;;;1814800;79;21151;-77
2021/12/08 05:31:27;;;;;;;19.00;11.57;;;;;;;;;;1814738;78;21202;-77
2021/12/08 05:33:58;;;;;;;13.62;9.80;;;;;;;;;;1804309;77;21654;-76
2021/12/08 05:36:37;;;;;;;11.38;8.78;;;;;;;;;;1781099;78;21184;-76
2021/12/08 05:39:09;;;;;;;11.38;8.53;;;;;;;;;;1814082;77;21202;-76
2021/12/08 05:41:40;;;;;;;11.95;8.65;;;;;;;;;;1806336;76;21182;-76
2021/12/08 05:44:11;;;;;;;10.93;8.80;;;;;;;;;;1835479;78;21088;-77
2021/12/08 05:46:42;;;;;;;15.08;8.23;;;;;;;;;;1880959;75;21077;-70
2021/12/08 05:49:14;;;;;;;11.97;8.63;;;;;;;;;;1840276;76;21189;-72
2021/12/08 05:51:45;;;;;;;13.85;8.98;;;;;;;;;;1877995;75;21531;-70
2021/12/08 05:54:16;;;;;;;12.50;8.55;;;;;;;;;;1877689;75;21117;-71
2021/12/08 05:56:46;;;;;;;12.90;8.33;;;;;;;;;;1833865;76;21687;-72
2021/12/08 05:59:17;;;;;;;12.23;8.60;;;;;;;;;;1780092;79;21141;-73
2021/12/08 06:01:52;;;;;;;14.68;9.08;;;;;;;;;;1827657;78;21150;-72
2021/12/08 06:04:23;;;;;;;14.05;9.70;;;;;;;;;;1833816;78;21107;-74
2021/12/08 06:06:57;;;;;;;14.83;10.13;;;;;;;;;;1836051;76;21076;-73
2021/12/08 06:09:28;;;;;;;12.18;9.40;;;;;;;;;;1865344;76;21685;-72
2021/12/08 06:11:58;;;;;;;12.37;9.53;;;;;;;;;;1878443;76;21132;-71
2021/12/08 06:14:32;;;;;;;17.30;9.30;;;;;;;;;;1881894;75;21189;-71
2021/12/08 06:17:02;;;;;;;16.80;9.15;;;;;;;;;;1881726;75;21224;-72
2021/12/08 06:19:33;;;;;;;14.87;10.13;;;;;;;;;;1838995;76;21850;-71
2021/12/08 06:22:08;;;;;;;11.30;8.80;;;;;;;;;;1878779;76;21255;-72
2021/12/08 06:24:36;;;;;;;13.25;9.03;;;;;;;;;;1835189;78;21175;-72
2021/12/08 06:27:09;;;;;;;12.73;9.20;;;;;;;;;;1799308;78;21115;-72
2021/12/08 06:29:40;;;;;;;17.57;9.80;;;;;;;;;;1879825;75;21090;-74
2021/12/08 06:32:11;;;;;;;12.43;9.20;;;;;;;;;;1878376;75;21288;-74
2021/12/08 06:34:45;;;;;;;14.05;9.08;;;;;;;;;;1879673;76;21187;-73
2021/12/08 06:37:20;;;;;;;13.08;9.50;;;;;;;;;;1882477;75;21145;-73
2021/12/08 06:39:51;;;;;;;13.10;9.15;;;;;;;;;;1838519;76;21238;-72
2021/12/08 06:42:23;;;;;;;14.10;9.30;;;;;;;;;;1874963;76;21178;-70
2021/12/08 06:44:53;;;;;;;13.45;9.38;;;;;;;;;;1802602;78;21139;-72
2021/12/08 06:47:26;;;;;;;15.72;9.05;;;;;;;;;;1821539;77;21239;-73
2021/12/08 06:49:57;;;;;;;15.45;9.70;;;;;;;;;;1795098;79;21166;-73
2021/12/08 06:52:28;;;;;;;13.70;10.25;;;;;;;;;;1794017;78;21228;-72
2021/12/08 06:54:59;;;;;;;16.45;11.03;;;;;;;;;;1791735;78;21086;-73
2021/12/08 06:57:31;;;;;;;17.60;12.20;;;;;;;;;;1788555;79;21296;-72
2021/12/08 07:00:18;;;;;;;15.08;10.60;;;;;;;;;;1789331;79;21717;-74
2021/12/08 07:03:02;;;;;;;12.40;10.00;;;;;;;;;;1794040;78;21736;-71
2021/12/08 07:05:25;;;;;;;12.18;9.95;;;;;;;;;;1790887;79;21153;-73
2021/12/08 07:07:41;;;;;;;13.32;9.63;;;;;;;;;;1823885;78;21145;-71
2021/12/08 07:10:14;;;;;;;12.65;10.25;;;;;;;;;;1789409;80;21102;-70
2021/12/08 07:12:46;;;;;;;12.30;9.40;;;;;;;;;;1827546;77;21606;-69
2021/12/08 07:15:15;;;;;;;12.82;9.95;;;;;;;;;;1824161;77;21162;-69
2021/12/08 07:17:46;;;;;;;12.88;9.83;;;;;;;;;;1826023;77;21123;-71
2021/12/08 07:20:33;;;;;;;13.20;10.10;;;;;;;;;;1793159;78;21594;-71
2021/12/08 07:22:51;;;;;;;13.93;9.85;;;;;;;;;;1763672;80;21151;-71
2021/12/08 07:25:24;;;;;;;13.22;9.85;;;;;;;;;;1823200;77;21210;-72
2021/12/08 07:27:55;;;;;;;13.55;10.03;;;;;;;;;;1826831;77;21648;-72
2021/12/08 07:30:26;;;;;;;14.10;10.25;;;;;;;;;;1818951;77;21131;-70
2021/12/08 07:32:56;;;;;;;13.78;9.43;;;;;;;;;;1826677;77;21212;-69
2021/12/08 07:35:27;;;;;;;12.40;9.38;;;;;;;;;;1792280;79;21146;-70
2021/12/08 07:37:58;;;;;;;13.68;8.83;;;;;;;;;;1792450;78;21851;-71
2021/12/08 07:40:30;;;;;;;12.07;9.33;;;;;;;;;;1779827;79;21652;-70
2021/12/08 07:43:01;;;;;;;13.85;9.25;;;;;;;;;;1799578;78;21170;-72
2021/12/08 07:45:35;;;;;;;13.85;10.03;;;;;;;;;;1823696;78;21084;-71
2021/12/08 07:48:06;;;;;;;13.35;8.98;;;;;;;;;;1819868;77;22014;-70
2021/12/08 07:50:37;;;;;;;13.05;9.33;;;;;;;;;;1853991;76;21181;-70
2021/12/08 07:53:08;;;;;;;12.95;10.23;;;;;;;;;;1819710;77;21648;-70
2021/12/08 07:55:40;;;;;;;17.50;10.30;;;;;;;;;;1794099;79;21225;-68
2021/12/08 07:58:11;;;;;;;12.95;9.98;;;;;;;;;;1817913;77;21078;-70
2021/12/08 08:00:43;;;;;;;15.08;10.25;;;;;;;;;;1852452;76;21219;-71
2021/12/08 08:03:14;;;;;;;11.25;9.00;;;;;;;;;;1857360;76;21579;-71
2021/12/08 08:05:45;;;;;;;13.25;9.88;;;;;;;;;;1855114;76;21108;-70
2021/12/08 08:08:18;;;;;;;13.05;9.45;;;;;;;;;;1853800;76;21127;-70
2021/12/08 08:10:49;;;;;;;12.95;9.43;;;;;;;;;;1854460;76;21145;-71
2021/12/08 08:13:21;;;;;;;18.55;12.43;;;;;;;;;;1816945;77;21206;-70
2021/12/08 08:15:52;;;;;;;15.55;11.78;;;;;;;;;;1781457;79;21650;-70
2021/12/08 08:18:26;;;;;;;15.25;10.68;;;;;;;;;;1814607;77;21212;-71
2021/12/08 08:20:55;;;;;;;12.35;9.30;;;;;;;;;;1799661;79;21189;-70
2021/12/08 08:23:27;;;;;;;14.80;10.35;;;;;;;;;;1852371;76;21088;-70
2021/12/08 08:25:57;;;;;;;13.43;9.30;;;;;;;;;;1858385;76;21139;-69
2021/12/08 08:28:27;;;;;;;15.25;9.95;;;;;;;;;;1857060;76;21684;-70
2021/12/08 08:30:59;;;;;;;14.28;9.38;;;;;;;;;;1857468;76;21152;-70
2021/12/08 08:33:31;;;;;;;20.02;10.50;;;;;;;;;;1813767;78;21715;-69
2021/12/08 08:36:04;;;;;;;11.95;9.30;;;;;;;;;;1819562;77;21126;-69
2021/12/08 08:38:35;;;;;;;13.55;9.93;;;;;;;;;;1803831;79;21692;-71
2021/12/08 08:41:06;;;;;;;16.40;9.93;;;;;;;;;;1859563;76;21205;-70
2021/12/08 08:43:37;;;;;;;13.03;9.03;;;;;;;;;;1816069;77;22109;-71
2021/12/08 08:46:09;;;;;;;15.70;9.70;;;;;;;;;;1854271;76;21844;-70
2021/12/08 08:48:41;;;;;;;19.07;9.10;;;;;;;;;;1858844;76;21142;-70
2021/12/08 08:51:12;;;;;;;13.03;9.23;;;;;;;;;;1855838;75;21111;-70
2021/12/08 08:53:43;;;;;;;12.95;8.88;;;;;;;;;;1788537;78;21156;-69
2021/12/08 08:56:15;;;;;;;14.05;9.18;;;;;;;;;;1859725;76;21727;-69
2021/12/08 08:58:46;;;;;;;14.68;9.78;;;;;;;;;;1854669;76;21193;-69
2021/12/08 09:01:19;;;;;;;14.83;9.00;;;;;;;;;;1848658;76;21147;-70
2021/12/08 09:03:50;;;;;;;12.75;8.70;;;;;;;;;;1808293;77;21134;-70
2021/12/08 09:06:22;;;;;;;12.35;9.25;;;;;;;;;;1799703;78;21208;-71
2021/12/08 09:08:53;;;;;;;16.52;9.30;;;;;;;;;;1824557;77;21625;-70
2021/12/08 09:11:24;;;;;;;14.58;9.50;;;;;;;;;;1825568;77;21058;-70
2021/12/08 09:13:59;;;;;;;14.43;9.70;;;;;;;;;;1817012;77;21142;-70
2021/12/08 09:16:28;;;;;;;11.63;9.40;;;;;;;;;;1817469;77;21161;-71
2021/12/08 09:19:04;;;;;;;12.05;9.60;;;;;;;;;;1853668;76;21062;-71
2021/12/08 09:21:32;;;;;;;12.95;9.73;;;;;;;;;;1817281;77;21114;-71
2021/12/08 09:24:05;;;;;;;17.02;10.35;;;;;;;;;;1858928;76;21684;-70
2021/12/08 09:26:36;;;;;;;13.95;8.95;;;;;;;;;;1854447;76;21154;-69
2021/12/08 09:29:07;;;;;;;13.35;9.60;;;;;;;;;;1800482;77;21183;-69
2021/12/08 09:31:38;;;;;;;12.47;8.88;;;;;;;;;;1800730;79;21155;-70
2021/12/08 09:34:08;;;;;;;30.40;10.72;;;;;;;;;;1817521;77;21165;-70
2021/12/08 09:36:41;;;;;;;23.73;10.35;;;;;;;;;;1816500;77;21181;-71
2021/12/08 09:39:12;;;;;;;12.03;8.75;;;;;;;;;;1787542;79;21106;-70
2021/12/08 09:41:43;;;;;;;14.28;10.08;;;;;;;;;;1821746;77;21162;-69
2021/12/08 09:44:15;;;;;;;17.12;9.13;;;;;;;;;;1823078;77;21269;-71
2021/12/08 09:46:46;;;;;;;13.80;9.25;;;;;;;;;;1843968;76;21127;-70
2021/12/08 09:49:18;;;;;;;13.58;9.08;;;;;;;;;;1825557;76;21157;-72
2021/12/08 09:51:48;;;;;;;21.15;10.58;;;;;;;;;;1819375;76;21584;-71
2021/12/08 09:54:18;;;;;;;19.25;9.68;;;;;;;;;;1832019;76;21194;-71
2021/12/08 09:56:50;;;;;;;15.58;9.78;;;;;;;;;;1827721;76;21106;-72
2021/12/08 09:59:22;;;;;;;19.48;10.50;;;;;;;;;;1833153;76;21164;-70
2021/12/08 10:01:55;;;;;;;11.95;10.15;;;;;;;;;;1823488;76;21354;-71
2021/12/08 10:04:24;;;;;;;14.45;9.85;;;;;;;;;;1828736;77;21157;-70
2021/12/08 10:06:55;;;;;;;14.05;9.73;;;;;;;;;;1793625;78;21087;-71
2021/12/08 10:09:25;;;;;;;16.75;10.43;;;;;;;;;;1864355;75;21204;-69
2021/12/08 10:11:55;;;;;;;16.65;11.75;;;;;;;;;;1871133;75;21126;-68
2021/12/08 10:14:26;;;;;;;13.13;10.63;;;;;;;;;;1838556;76;21591;-68
2021/12/08 10:16:56;;;;;;;17.55;11.15;;;;;;;;;;1832378;76;21721;-69
2021/12/08 10:19:27;;;;;;;16.17;10.98;;;;;;;;;;1828591;76;21158;-70
2021/12/08 10:21:58;;;;;;;18.40;11.30;;;;;;;;;;1838919;76;21170;-70
2021/12/08 10:24:30;;;;;;;16.60;10.50;;;;;;;;;;1835261;77;21175;-70
2021/12/08 10:27:02;;;;;;;15.98;12.05;;;;;;;;;;1837042;76;21626;-71
2021/12/08 10:29:33;;;;;;;16.02;10.95;;;;;;;;;;1830563;76;21186;-71
2021/12/08 10:32:04;;;;;;;20.32;12.18;;;;;;;;;;1834331;78;21092;-70
2021/12/08 10:34:48;;;;;;;17.15;12.15;;;;;;;;;;1830560;76;21485;-70
2021/12/08 10:37:10;;;;;;;16.23;12.65;;;;;;;;;;1833941;76;21138;-70
2021/12/08 10:39:42;;;;;;;21.17;15.13;;;;;;;;;;1839616;77;21084;-70
2021/12/08 10:42:13;;;;;;;24.98;16.55;;;;;;;;;;1836812;76;21207;-70
2021/12/08 10:44:51;;;;;;;27.37;19.17;;;;;;;;;;1832108;76;21193;-69
2021/12/08 10:47:18;;;;;;;27.85;19.15;;;;;;;;;;1806732;78;21727;-68
2021/12/08 10:54:50;;;;;;;25.65;17.50;;;;;;;;;;1803223;78;21805;-72
2021/12/08 10:57:21;;;;;;;31.23;19.27;;;;;;;;;;1840736;76;21127;-71
2021/12/08 10:59:53;;;;;;;28.12;18.30;;;;;;;;;;1799034;78;21288;-72
2021/12/08 11:02:24;;;;;;;23.42;16.93;;;;;;;;;;1772170;80;21210;-71
2021/12/08 11:04:55;;;;;;;26.42;16.65;;;;;;;;;;1799273;78;21180;-68
2021/12/08 11:07:25;;;;;;;19.95;15.35;;;;;;;;;;1760668;80;21190;-72
2021/12/08 11:09:55;;;;;;;22.10;15.83;;;;;;;;;;1788324;79;21186;-71
2021/12/08 11:12:27;;;;;;;21.87;15.43;;;;;;;;;;1829517;76;21186;-72
2021/12/08 11:14:59;;;;;;;21.70;14.60;;;;;;;;;;1834426;76;21163;-71
2021/12/08 11:17:30;;;;;;;22.45;14.98;;;;;;;;;;1835805;76;21142;-71
2021/12/08 11:20:02;;;;;;;23.73;14.33;;;;;;;;;;1778741;79;21156;-72
2021/12/08 11:22:33;;;;;;;21.40;13.43;;;;;;;;;;1793112;78;21185;-69
2021/12/08 11:25:06;;;;;;;20.17;13.75;;;;;;;;;;1829785;78;21150;-78
2021/12/08 11:27:37;;;;;;;23.42;14.75;;;;;;;;;;1835372;78;21177;-78
2021/12/08 11:30:08;;;;;;;22.17;16.00;;;;;;;;;;1836720;76;21221;-78
2021/12/08 11:32:39;;;;;;;29.15;17.35;;;;;;;;;;1777234;79;21167;-80
2021/12/08 11:35:10;;;;;;;28.00;17.23;;;;;;;;;;1799144;78;21574;-79
2021/12/08 11:37:40;;;;;;;27.37;18.17;;;;;;;;;;1761562;79;21222;-79
2021/12/08 11:40:11;;;;;;;31.97;20.70;;;;;;;;;;1777230;79;21474;-80
2021/12/08 11:42:42;;;;;;;37.00;25.60;;;;;;;;;;1793130;78;21216;-81
2021/12/08 11:45:14;;;;;;;39.83;26.60;;;;;;;;;;1795302;79;21734;-79
2021/12/08 11:47:44;;;;;;;41.48;25.97;;;;;;;;;;1837344;78;21221;-79
2021/12/08 11:50:16;;;;;;;42.93;27.15;;;;;;;;;;1835550;78;21210;-80
2021/12/08 11:52:45;;;;;;;40.28;26.97;;;;;;;;;;1827068;77;21733;-80
2021/12/08 11:55:17;;;;;;;38.73;26.25;;;;;;;;;;1836324;76;21110;-78
2021/12/08 11:57:49;;;;;;;43.60;28.57;;;;;;;;;;1826519;78;21229;-79
2021/12/08 12:00:22;;;;;;;38.17;27.27;;;;;;;;;;1830912;77;21254;-79
2021/12/08 12:02:58;;;;;;;43.08;27.30;;;;;;;;;;1828524;77;21151;-80
2021/12/08 12:05:28;;;;;;;40.23;26.70;;;;;;;;;;1833979;78;21240;-80
2021/12/08 12:07:58;;;;;;;37.73;24.55;;;;;;;;;;1833521;76;21722;-79
2021/12/08 12:10:30;;;;;;;34.00;23.73;;;;;;;;;;1799476;78;21620;-79
2021/12/08 12:13:03;;;;;;;34.83;22.85;;;;;;;;;;1838102;77;21295;-79
2021/12/08 12:15:33;;;;;;;32.60;21.12;;;;;;;;;;1824593;78;21239;-79
2021/12/08 12:18:04;;;;;;;30.17;20.70;;;;;;;;;;1870474;77;21123;-79
2021/12/08 12:20:38;;;;;;;30.25;20.95;;;;;;;;;;1873736;75;21110;-79
2021/12/08 12:23:08;;;;;;;34.43;21.15;;;;;;;;;;1836233;76;21638;-79
2021/12/08 12:25:38;;;;;;;29.23;20.77;;;;;;;;;;1840237;76;21142;-79
2021/12/08 12:28:12;;;;;;;34.27;20.60;;;;;;;;;;1836963;78;21123;-79
2021/12/08 12:30:43;;;;;;;34.85;20.00;;;;;;;;;;1826689;78;21135;-78
2021/12/08 12:33:14;;;;;;;31.75;20.35;;;;;;;;;;1848576;77;21228;-80
2021/12/08 12:35:46;;;;;;;27.55;19.98;;;;;;;;;;1849788;77;21476;-79
2021/12/08 12:38:16;;;;;;;30.15;21.23;;;;;;;;;;1829149;76;21147;-78
2021/12/08 12:40:48;;;;;;;32.17;21.37;;;;;;;;;;1917538;75;21146;-79
2021/12/08 12:43:19;;;;;;;34.53;21.60;;;;;;;;;;1849157;76;21148;-79
2021/12/08 12:45:50;;;;;;;31.15;21.48;;;;;;;;;;1827192;77;21626;-80
2021/12/08 12:48:22;;;;;;;31.60;22.73;;;;;;;;;;1813901;77;21300;-79
2021/12/08 12:50:53;;;;;;;32.80;20.68;;;;;;;;;;1822596;78;21149;-79
2021/12/08 12:53:24;;;;;;;33.18;21.93;;;;;;;;;;1796606;78;21197;-80
2021/12/08 12:55:56;;;;;;;34.85;20.97;;;;;;;;;;1835168;76;21481;-79
2021/12/08 12:58:28;;;;;;;32.90;21.75;;;;;;;;;;1847350;76;21209;-79
2021/12/08 13:00:59;;;;;;;33.28;21.82;;;;;;;;;;1875499;75;21189;-79
2021/12/08 13:03:49;;;;;;;36.45;22.02;;;;;;;;;;1766807;80;21143;-81
2021/12/08 13:06:20;;;;;;;30.02;21.80;;;;;;;;;;1782637;79;21205;-79
2021/12/08 13:08:51;;;;;;;30.45;21.60;;;;;;;;;;1780259;80;21155;-79
2021/12/08 13:11:25;;;;;;;30.70;20.65;;;;;;;;;;1798895;79;21663;-78
2021/12/08 13:13:56;;;;;;;33.70;19.87;;;;;;;;;;1788403;80;21172;-79
2021/12/08 13:16:27;;;;;;;28.70;20.48;;;;;;;;;;1774032;80;21188;-78
2021/12/08 13:18:59;;;;;;;29.60;20.10;;;;;;;;;;1774536;80;21259;-79
2021/12/08 13:21:31;;;;;;;32.08;20.15;;;;;;;;;;1785004;78;21138;-79
2021/12/08 13:24:01;;;;;;;26.65;20.05;;;;;;;;;;1795405;78;21664;-79
2021/12/08 13:26:32;;;;;;;28.55;19.85;;;;;;;;;;1778552;80;21202;-78
2021/12/08 13:29:10;;;;;;;32.55;21.07;;;;;;;;;;1790484;78;21098;-79
2021/12/08 13:34:06;;;;;;;26.70;19.15;;;;;;;;;;1782472;79;21067;-79
2021/12/08 13:36:37;;;;;;;31.25;19.92;;;;;;;;;;1786800;78;21233;-78
2021/12/08 13:39:09;;;;;;;29.27;18.87;;;;;;;;;;1766060;80;21165;-79
2021/12/08 13:41:40;;;;;;;29.10;19.75;;;;;;;;;;1780887;80;21149;-79
2021/12/08 13:44:11;;;;;;;30.57;19.27;;;;;;;;;;1780152;80;22026;-78
2021/12/08 13:46:44;;;;;;;29.65;18.05;;;;;;;;;;1785976;80;21165;-80
2021/12/08 13:49:15;;;;;;;30.20;19.02;;;;;;;;;;1773653;80;21215;-79
2021/12/08 13:51:47;;;;;;;31.12;19.50;;;;;;;;;;1774475;80;21237;-80
2021/12/08 13:54:18;;;;;;;29.18;18.67;;;;;;;;;;1801869;78;21099;-79
2021/12/08 13:56:49;;;;;;;25.05;17.37;;;;;;;;;;1813537;78;21162;-79
2021/12/08 13:59:20;;;;;;;29.50;18.25;;;;;;;;;;1765038;80;21102;-79
2021/12/08 14:01:50;;;;;;;29.63;19.15;;;;;;;;;;1766624;79;21648;-79
2021/12/08 14:04:20;;;;;;;44.35;29.85;;;;;;;;;;1774012;78;21290;-79
2021/12/08 14:06:50;;;;;;;36.93;26.02;;;;;;;;;;1781119;78;21090;-80
2021/12/08 14:09:22;;;;;;;39.20;24.80;;;;;;;;;;1764850;79;21188;-79
2021/12/08 14:11:52;;;;;;;33.08;22.67;;;;;;;;;;1779608;80;21141;-79
2021/12/08 14:14:22;;;;;;;28.87;21.17;;;;;;;;;;1767534;80;21213;-80
2021/12/08 14:16:52;;;;;;;31.10;20.50;;;;;;;;;;1781996;80;21122;-79
2021/12/08 14:19:23;;;;;;;28.92;20.62;;;;;;;;;;1777047;80;21263;-79
2021/12/08 14:21:58;;;;;;;30.60;21.52;;;;;;;;;;1774728;80;21098;-79
2021/12/08 14:24:26;;;;;;;26.00;20.43;;;;;;;;;;1782606;80;21101;-79
2021/12/08 14:26:56;;;;;;;34.65;22.73;;;;;;;;;;1776505;80;21131;-79
2021/12/08 14:29:26;;;;;;;32.95;19.32;;;;;;;;;;1785451;80;21145;-79
2021/12/08 14:31:57;;;;;;;26.93;20.10;;;;;;;;;;1791837;79;21119;-79
2021/12/08 14:34:29;;;;;;;32.65;19.20;;;;;;;;;;1787031;78;21170;-79
2021/12/08 14:37:01;;;;;;;31.17;20.10;;;;;;;;;;1793013;80;21099;-79
2021/12/08 14:39:37;;;;;;;27.10;18.87;;;;;;;;;;1785439;80;21142;-79
2021/12/08 14:42:05;;;;;;;26.85;17.90;;;;;;;;;;1807266;78;21213;-79
2021/12/08 14:44:36;;;;;;;26.07;17.70;;;;;;;;;;1766523;78;21137;-79
2021/12/08 14:47:08;;;;;;;26.12;17.42;;;;;;;;;;1779772;78;21523;-79
2021/12/08 14:49:41;;;;;;;26.30;17.57;;;;;;;;;;1789987;78;21638;-79
2021/12/08 14:52:12;;;;;;;24.65;17.07;;;;;;;;;;1790271;79;21204;-80
2021/12/08 14:54:44;;;;;;;25.80;17.17;;;;;;;;;;1798221;78;21106;-79
2021/12/08 14:57:15;;;;;;;24.65;18.40;;;;;;;;;;1790283;79;21562;-79
2021/12/08 14:59:46;;;;;;;28.67;17.10;;;;;;;;;;1807050;79;21134;-79
2021/12/08 15:02:18;;;;;;;28.32;17.15;;;;;;;;;;1810272;79;21118;-78
2021/12/08 15:04:49;;;;;;;27.95;18.35;;;;;;;;;;1816642;78;21194;-79
2021/12/08 15:07:20;;;;;;;28.10;17.80;;;;;;;;;;1821706;78;21185;-80
2021/12/08 15:09:51;;;;;;;24.85;16.77;;;;;;;;;;1794790;78;21762;-82
2021/12/08 15:12:21;;;;;;;27.52;17.42;;;;;;;;;;1826756;78;21167;-81
2021/12/08 15:14:51;;;;;;;29.25;17.45;;;;;;;;;;1831488;78;21210;-80
2021/12/08 15:17:22;;;;;;;25.32;17.15;;;;;;;;;;1814836;78;21562;-79
2021/12/08 15:19:53;;;;;;;26.55;17.45;;;;;;;;;;1816347;78;21143;-79
2021/12/08 15:22:25;;;;;;;25.10;17.77;;;;;;;;;;1825715;78;21163;-80
2021/12/08 15:24:56;;;;;;;24.35;17.23;;;;;;;;;;1823306;78;21159;-79
2021/12/08 15:27:28;;;;;;;26.40;17.35;;;;;;;;;;1820259;78;21215;-79
2021/12/08 15:29:58;;;;;;;24.18;17.25;;;;;;;;;;1823023;78;21175;-79
2021/12/08 15:32:28;;;;;;;29.23;17.50;;;;;;;;;;1821736;78;21690;-78
2021/12/08 15:35:00;;;;;;;27.27;17.35;;;;;;;;;;1818034;78;22143;-79
2021/12/08 15:37:32;;;;;;;25.35;16.50;;;;;;;;;;1800203;78;21158;-79